Terminal Aerodrome Forecast
Issued by NWS

Home | Current Version | Previous Version | Text Only | Print | Product List | Glossary On
Versions: 1 2 3 4 5 6 7 8 9 10 11 12 13 14
000
FTUS45 KABQ 282339
TAFSAF
TAF
KSAF 282339Z 2900/2924 26007KT P6SM VCSH SCT100 BKN150
      TEMPO 2900/2902 04012KT BKN100
     FM290300 13012G20KT P6SM VCSH BKN090
     FM290700 11008KT P6SM SCT050 BKN100
     FM291600 16008KT P6SM SCT070 BKN120=

USA.gov is the U.S. government's official web portal to all federal, state and local government web resources and services.